createdAt,value
2023-01-17T00:00:44.295Z,60.3
2023-01-17T00:01:45.273Z,60
2023-01-17T00:02:46.366Z,60.5
2023-01-17T00:03:47.492Z,60.6
2023-01-17T00:04:48.659Z,60.6
2023-01-17T00:05:50.412Z,60.2
2023-01-17T00:06:51.153Z,59.8
2023-01-17T00:07:52.112Z,59.3
2023-01-17T00:08:53.173Z,58.8
2023-01-17T00:09:54.097Z,58.4
2023-01-17T00:10:55.154Z,57.9
2023-01-17T00:11:56.113Z,57.6
2023-01-17T00:12:57.294Z,57.4
2023-01-17T00:13:58.309Z,57.5
2023-01-17T00:14:59.376Z,57.7
2023-01-17T00:16:00.439Z,57.9
2023-01-17T00:17:01.435Z,58.2
2023-01-17T00:18:02.414Z,58.6
2023-01-17T00:19:03.333Z,59
2023-01-17T00:20:04.313Z,59.3
2023-01-17T00:21:05.355Z,59.4
2023-01-17T00:22:06.361Z,59.2
2023-01-17T00:23:07.315Z,59.1
2023-01-17T00:24:11.134Z,59.3
2023-01-17T00:25:12.282Z,59.3
2023-01-17T00:26:13.338Z,59.1
2023-01-17T00:27:14.354Z,58.8
2023-01-17T00:28:15.422Z,58.8
2023-01-17T00:29:16.361Z,58.9
2023-01-17T00:30:17.394Z,59.1
2023-01-17T00:31:18.412Z,59.3
2023-01-17T00:32:19.336Z,59.3
2023-01-17T00:33:20.198Z,59.4
2023-01-17T00:34:21.253Z,59.2
2023-01-17T00:35:22.222Z,59.2
2023-01-17T00:36:23.175Z,59.7
2023-01-17T00:37:24.095Z,59.9
2023-01-17T00:38:25.197Z,59.7
2023-01-17T00:39:26.152Z,59.8
2023-01-17T00:40:27.214Z,60
2023-01-17T00:41:28.356Z,59.6
2023-01-17T00:42:29.323Z,59.5
2023-01-17T00:43:30.341Z,59.4
2023-01-17T00:44:31.377Z,59.4
2023-01-17T00:45:32.734Z,59.5
2023-01-17T00:46:34.581Z,59.7
2023-01-17T00:47:35.387Z,59.5
2023-01-17T00:48:36.373Z,59.2
2023-01-17T00:49:37.363Z,59.1
2023-01-17T00:50:38.101Z,58.7
2023-01-17T00:51:39.245Z,59.2
2023-01-17T00:52:40.178Z,59.1
2023-01-17T00:53:41.195Z,58.7
2023-01-17T00:54:42.502Z,58.4
2023-01-17T00:55:43.293Z,58.1
2023-01-17T00:56:44.418Z,57.9
2023-01-17T00:57:45.317Z,57.8
2023-01-17T00:58:46.376Z,57.8
2023-01-17T00:59:47.125Z,57.9
2023-01-17T01:00:48.679Z,58.2
2023-01-17T01:01:50.633Z,58.3
2023-01-17T01:02:51.406Z,58.4
2023-01-17T01:03:52.384Z,58.5
2023-01-17T01:04:53.294Z,58.5
2023-01-17T01:05:54.253Z,58.5
2023-01-17T01:06:55.255Z,58.4
2023-01-17T01:07:56.193Z,58.4
2023-01-17T01:08:57.293Z,58.3
2023-01-17T01:09:58.332Z,58.1
2023-01-17T01:10:59.376Z,57.8
2023-01-17T01:12:00.369Z,57.6
2023-01-17T01:13:01.420Z,57.7
2023-01-17T01:14:02.335Z,57.7
2023-01-17T01:15:03.415Z,57.9
2023-01-17T01:16:04.492Z,57.9
2023-01-17T01:17:05.335Z,58
2023-01-17T01:18:06.340Z,57.9
2023-01-17T01:19:07.333Z,58.1
2023-01-17T01:20:08.225Z,58.4
2023-01-17T01:21:09.274Z,58.3
2023-01-17T01:22:10.232Z,58.3
2023-01-17T01:23:11.179Z,58.3
2023-01-17T01:24:12.333Z,58.1
2023-01-17T01:25:13.375Z,58.2
2023-01-17T01:26:14.416Z,58.5
2023-01-17T01:27:15.394Z,58.6
2023-01-17T01:28:16.372Z,58.9
2023-01-17T01:29:17.354Z,59.4
2023-01-17T01:30:18.429Z,59.8
2023-01-17T01:31:19.453Z,59.9
2023-01-17T01:32:20.415Z,59.7
2023-01-17T01:33:21.524Z,59.9
2023-01-17T01:34:22.494Z,60
2023-01-17T01:35:23.375Z,60
2023-01-17T01:36:24.353Z,60
2023-01-17T01:37:25.343Z,60
2023-01-17T01:38:26.317Z,60
2023-01-17T01:39:27.234Z,60
2023-01-17T01:40:28.352Z,60.2
2023-01-17T01:41:29.348Z,60
2023-01-17T01:42:30.432Z,60
2023-01-17T01:43:31.414Z,59.8
2023-01-17T01:44:32.304Z,59.7
2023-01-17T01:45:33.513Z,59.3
2023-01-17T01:46:34.398Z,59.8
2023-01-17T01:47:35.392Z,60
2023-01-17T01:48:36.434Z,59.7
2023-01-17T01:49:37.394Z,59.7
2023-01-17T01:50:38.437Z,59.6
2023-01-17T01:51:39.234Z,59.3
2023-01-17T01:52:40.253Z,59.3
2023-01-17T01:53:41.297Z,59.2
2023-01-17T01:54:42.292Z,59.1
2023-01-17T01:55:43.339Z,58.9
2023-01-17T01:56:44.480Z,58.6
2023-01-17T01:57:45.333Z,58.6
2023-01-17T01:58:46.383Z,59
2023-01-17T01:59:47.412Z,59.2
2023-01-17T02:00:48.720Z,58.8
2023-01-17T02:01:49.510Z,58.7
2023-01-17T02:02:50.214Z,58.6
2023-01-17T02:06:16.656Z,58.6
2023-01-17T02:07:19.440Z,57.5
2023-01-17T02:08:20.273Z,57
2023-01-17T02:09:21.373Z,56.6
2023-01-17T02:10:22.441Z,56.5
2023-01-17T02:11:23.253Z,56.5
2023-01-17T02:12:24.237Z,56.7
2023-01-17T02:13:25.134Z,56.7
2023-01-17T02:14:26.233Z,56.6
2023-01-17T02:15:27.346Z,56.6
2023-01-17T02:16:28.520Z,56.6
2023-01-17T02:17:29.497Z,56.3
2023-01-17T02:18:30.399Z,56
2023-01-17T02:19:31.380Z,55.7
2023-01-17T02:20:32.503Z,55.7
2023-01-17T02:21:33.459Z,55.6
2023-01-17T02:22:34.413Z,55.6
2023-01-17T02:23:35.375Z,55.9
2023-01-17T02:24:36.394Z,56.1
2023-01-17T02:25:37.393Z,56.1
2023-01-17T02:26:38.413Z,56.1
2023-01-17T02:27:39.343Z,56.1
2023-01-17T02:28:40.323Z,56.1
2023-01-17T02:29:41.460Z,55.9
2023-01-17T02:30:42.468Z,55.9
2023-01-17T02:31:43.510Z,55.5
2023-01-17T02:32:44.657Z,55.4
2023-01-17T02:33:46.375Z,55.6
2023-01-17T02:34:47.454Z,55.6
2023-01-17T02:35:48.811Z,55.6
2023-01-17T02:36:50.474Z,55.6
2023-01-17T02:37:51.455Z,55.7
2023-01-17T02:38:52.509Z,55.7
2023-01-17T02:39:53.433Z,55.8
2023-01-17T02:40:54.438Z,55.8
2023-01-17T02:41:55.435Z,55.8
2023-01-17T02:42:56.395Z,55.7
2023-01-17T02:43:57.488Z,55.7
2023-01-17T02:44:58.438Z,55.8
2023-01-17T02:45:59.430Z,56
2023-01-17T02:47:00.396Z,55.7
2023-01-17T02:48:01.392Z,55.6
2023-01-17T02:49:02.534Z,55.4
2023-01-17T02:50:03.485Z,55.4
2023-01-17T02:51:04.397Z,55.4
2023-01-17T02:52:05.463Z,55.2
2023-01-17T02:53:06.434Z,55.1
2023-01-17T02:54:07.417Z,54.9
2023-01-17T02:55:08.174Z,54.8
2023-01-17T02:56:09.226Z,54.8
2023-01-17T02:57:10.196Z,54.8
2023-01-17T02:58:11.254Z,54.7
2023-01-17T02:59:12.254Z,54.8
2023-01-17T03:00:13.209Z,54.8
2023-01-17T03:01:14.547Z,54.6
2023-01-17T03:02:15.555Z,54.6
2023-01-17T03:03:16.445Z,55
2023-01-17T03:04:17.496Z,55.2
2023-01-17T03:05:20.294Z,55.2
2023-01-17T03:06:19.462Z,54.9
2023-01-17T03:07:20.553Z,54.8
2023-01-17T03:08:21.432Z,54.7
2023-01-17T03:09:22.382Z,54.7
2023-01-17T03:10:23.296Z,54.4
2023-01-17T03:11:24.428Z,54.5
2023-01-17T03:12:25.353Z,54.4
2023-01-17T03:13:26.254Z,54.3
2023-01-17T03:14:27.273Z,54
2023-01-17T03:15:28.244Z,53.9
2023-01-17T03:16:29.294Z,53.8
2023-01-17T03:17:30.283Z,53.8
2023-01-17T03:18:31.256Z,53.7
2023-01-17T03:19:32.214Z,54
2023-01-17T03:20:33.273Z,53.7
2023-01-17T03:21:34.255Z,54.2
2023-01-17T03:22:35.273Z,54.3
2023-01-17T03:23:36.244Z,54.1
2023-01-17T03:24:37.212Z,53.7
2023-01-17T03:25:38.492Z,53.4
2023-01-17T03:26:39.374Z,53
2023-01-17T03:27:40.453Z,52.8
2023-01-17T03:28:41.373Z,52.3
2023-01-17T03:29:42.220Z,52.1
2023-01-17T03:30:43.438Z,51.7
2023-01-17T03:31:44.398Z,51.9
2023-01-17T03:32:45.519Z,51.8
2023-01-17T03:33:46.513Z,51.7
2023-01-17T03:34:47.340Z,51.7
2023-01-17T03:35:48.833Z,51.3
2023-01-17T03:36:50.310Z,51.3
2023-01-17T03:37:51.306Z,51.2
2023-01-17T03:38:52.277Z,50.8
2023-01-17T03:39:53.295Z,50.9
2023-01-17T03:40:54.333Z,50.9
2023-01-17T03:41:55.343Z,51
2023-01-17T03:42:56.302Z,51.1
2023-01-17T03:43:57.283Z,51.1
2023-01-17T03:44:58.383Z,50.7
2023-01-17T03:45:59.493Z,50.8
2023-01-17T03:47:00.563Z,50.7
2023-01-17T03:48:01.550Z,50.6
2023-01-17T03:49:02.232Z,50.5
2023-01-17T03:50:03.259Z,50.3
2023-01-17T03:51:04.316Z,50.2
2023-01-17T03:52:05.318Z,50.2
2023-01-17T03:53:06.473Z,50.4
2023-01-17T03:54:07.434Z,50.3
2023-01-17T03:55:08.474Z,50.3
2023-01-17T03:56:09.558Z,50.4
2023-01-17T03:57:10.275Z,50.4
2023-01-17T03:58:11.333Z,50.2
2023-01-17T03:59:13.297Z,50.2
2023-01-17T04:00:13.307Z,50.3
2023-01-17T04:01:14.601Z,50.1
2023-01-17T04:02:15.599Z,49.8
2023-01-17T04:03:16.415Z,49.5
2023-01-17T04:04:17.533Z,49.2
2023-01-17T04:05:18.474Z,49
2023-01-17T04:06:19.482Z,49
2023-01-17T04:07:20.477Z,48.9
2023-01-17T04:08:21.477Z,49
2023-01-17T04:09:25.413Z,49
2023-01-17T04:10:26.303Z,49
2023-01-17T04:11:27.253Z,49
2023-01-17T04:12:28.394Z,48.9
2023-01-17T04:13:29.459Z,48.7
2023-01-17T04:14:30.521Z,48.7
2023-01-17T04:15:31.382Z,48.6
2023-01-17T04:16:32.491Z,48.7
2023-01-17T04:17:33.297Z,48.6
2023-01-17T04:18:34.522Z,48.6
2023-01-17T04:19:35.479Z,48.5
2023-01-17T04:20:36.473Z,48.3
2023-01-17T04:21:37.314Z,48.3
2023-01-17T04:22:38.293Z,48.2
2023-01-17T04:23:39.354Z,48.3
2023-01-17T04:24:40.273Z,48.3
2023-01-17T04:25:41.438Z,48.3
2023-01-17T04:26:42.292Z,48.5
2023-01-17T04:27:43.420Z,48.6
2023-01-17T04:28:44.493Z,48.7
2023-01-17T04:29:46.796Z,48.8
2023-01-17T04:30:46.589Z,48.6
2023-01-17T04:31:47.594Z,48.9
2023-01-17T04:32:48.803Z,48.7
2023-01-17T04:33:50.341Z,48.3
2023-01-17T04:34:51.355Z,48.7
2023-01-17T04:35:52.393Z,48.7
2023-01-17T04:36:53.294Z,48.7
2023-01-17T04:37:54.292Z,48.6
2023-01-17T04:38:55.315Z,48.7
2023-01-17T04:39:56.303Z,48.6
2023-01-17T04:40:57.373Z,48.7
2023-01-17T04:41:58.412Z,48.7
2023-01-17T04:42:59.452Z,49
2023-01-17T04:44:00.506Z,49.2
2023-01-17T04:45:01.597Z,49.4
2023-01-17T04:46:02.519Z,49.5
2023-01-17T04:47:03.494Z,49.7
2023-01-17T04:48:04.594Z,49.5
2023-01-17T04:49:05.496Z,49.5
2023-01-17T04:50:06.443Z,49.5
2023-01-17T04:51:07.480Z,49.5
2023-01-17T04:52:08.393Z,49.6
2023-01-17T04:53:09.374Z,49.9
2023-01-17T04:54:10.313Z,50
2023-01-17T04:55:11.354Z,50.2
2023-01-17T04:56:12.354Z,50.7
2023-01-17T04:57:13.575Z,50.9
2023-01-17T04:58:14.473Z,51
2023-01-17T04:59:15.473Z,51
2023-01-17T05:00:16.434Z,51
2023-01-17T05:01:17.618Z,51.1
2023-01-17T05:02:18.454Z,51.2
2023-01-17T05:03:19.564Z,51
2023-01-17T05:04:20.551Z,50.7
2023-01-17T05:05:21.355Z,50.7
2023-01-17T05:06:22.312Z,50.7
2023-01-17T05:07:23.344Z,50.5
2023-01-17T05:08:24.319Z,50.5
2023-01-17T05:09:25.352Z,50.7
2023-01-17T05:10:26.345Z,50.9
2023-01-17T05:11:27.353Z,50.7
2023-01-17T05:12:28.315Z,51
2023-01-17T05:13:29.346Z,50.7
2023-01-17T05:14:30.313Z,51
2023-01-17T05:15:31.319Z,51.2
2023-01-17T05:16:32.299Z,51.3
2023-01-17T05:17:33.355Z,51.2
2023-01-17T05:18:34.281Z,51.3
2023-01-17T05:19:35.299Z,51.4
2023-01-17T05:20:36.352Z,51.5
2023-01-17T05:21:37.293Z,51.5
2023-01-17T05:22:38.312Z,51.3
2023-01-17T05:23:39.373Z,51.2
2023-01-17T05:24:40.453Z,51.3
2023-01-17T05:25:41.584Z,51.2
2023-01-17T05:26:42.299Z,51.3
2023-01-17T05:27:43.432Z,51.1
2023-01-17T05:28:44.472Z,51.1
2023-01-17T05:29:45.521Z,51.1
2023-01-17T05:30:46.610Z,51
2023-01-17T05:31:47.513Z,50.4
2023-01-17T05:32:48.892Z,50.7
2023-01-17T05:33:50.452Z,51
2023-01-17T05:34:51.557Z,51.2
2023-01-17T05:35:52.352Z,51.3
2023-01-17T05:36:53.253Z,51.3
2023-01-17T05:37:54.357Z,51.6
2023-01-17T05:38:55.319Z,51.8
2023-01-17T05:39:56.363Z,51.8
2023-01-17T05:40:57.284Z,51.7
2023-01-17T05:41:58.268Z,51.5
2023-01-17T05:42:59.253Z,51.3
2023-01-17T05:44:00.333Z,51.2
2023-01-17T05:45:01.417Z,50.8
2023-01-17T05:46:02.380Z,51.1
2023-01-17T05:47:03.233Z,51
2023-01-17T05:48:04.498Z,51.3
2023-01-17T05:49:05.402Z,51.1
2023-01-17T05:50:06.412Z,50.9
2023-01-17T05:51:07.337Z,50.8
2023-01-17T05:52:08.420Z,50.7
2023-01-17T05:53:09.401Z,50.5
2023-01-17T05:54:10.300Z,50.4
2023-01-17T05:55:11.312Z,50.5
2023-01-17T05:56:12.314Z,50.4
2023-01-17T05:57:13.471Z,50.4
2023-01-17T05:58:14.609Z,50.3
2023-01-17T05:59:17.310Z,50.4
2023-01-17T06:00:16.503Z,50.5
2023-01-17T06:01:17.569Z,50.4
2023-01-17T06:02:18.334Z,50.5
2023-01-17T06:03:19.433Z,50.5
2023-01-17T06:04:20.366Z,50.3
2023-01-17T06:05:21.480Z,50.4
2023-01-17T06:06:22.453Z,50.6
2023-01-17T06:07:23.374Z,50.2
2023-01-17T06:08:24.711Z,50
2023-01-17T06:09:25.395Z,49.8
2023-01-17T06:10:26.273Z,49.9
2023-01-17T06:11:27.320Z,50.1
2023-01-17T06:12:28.357Z,49.5
2023-01-17T06:13:29.586Z,49.5
2023-01-17T06:14:30.514Z,49.1
2023-01-17T06:15:31.404Z,48.8
2023-01-17T06:16:32.374Z,48.6
2023-01-17T06:17:33.334Z,48.2
2023-01-17T06:18:34.313Z,48.1
2023-01-17T06:19:35.435Z,48
2023-01-17T06:20:36.466Z,48.1
2023-01-17T06:21:37.487Z,48
2023-01-17T06:22:38.364Z,47.7
2023-01-17T06:23:39.272Z,47.4
2023-01-17T06:24:40.252Z,46.8
2023-01-17T06:25:41.400Z,47
2023-01-17T06:26:42.384Z,46.8
2023-01-17T06:27:43.294Z,46.6
2023-01-17T06:28:44.485Z,46.6
2023-01-17T06:29:45.359Z,46.8
2023-01-17T06:30:46.380Z,47.1
2023-01-17T06:31:47.264Z,47.3
2023-01-17T06:32:48.863Z,46.7
2023-01-17T06:33:50.283Z,47.2
2023-01-17T06:34:51.271Z,47.1
2023-01-17T06:35:52.440Z,46.9
2023-01-17T06:36:53.282Z,47
2023-01-17T06:37:55.346Z,47
2023-01-17T06:38:56.441Z,46.9
2023-01-17T06:39:57.488Z,46.8
2023-01-17T06:40:58.464Z,46.9
2023-01-17T06:41:59.405Z,46.8
2023-01-17T06:43:00.411Z,46.6
2023-01-17T06:44:01.302Z,46.5
2023-01-17T06:45:02.423Z,46.6
2023-01-17T06:46:03.332Z,46.5
2023-01-17T06:47:04.263Z,46.5
2023-01-17T06:48:05.493Z,46.5
2023-01-17T06:49:06.502Z,46.6
2023-01-17T06:50:07.414Z,46.6
2023-01-17T06:51:08.430Z,46.6
2023-01-17T06:52:09.343Z,46.4
2023-01-17T06:53:10.264Z,46.1
2023-01-17T06:54:11.307Z,45.8
2023-01-17T06:55:12.421Z,45.5
2023-01-17T06:56:13.452Z,45.3
2023-01-17T06:57:14.469Z,45.3
2023-01-17T06:58:15.408Z,45.2
2023-01-17T06:59:16.462Z,44.9
2023-01-17T07:00:17.441Z,44.6
2023-01-17T07:01:19.550Z,44.5
2023-01-17T07:02:20.542Z,44.2
2023-01-17T07:03:21.474Z,44.1
2023-01-17T07:04:22.504Z,43.9
2023-01-17T07:05:23.459Z,43.8
2023-01-17T07:06:24.415Z,43.7
2023-01-17T07:07:25.412Z,43.6
2023-01-17T07:08:26.512Z,43.7
2023-01-17T07:09:27.423Z,43.8
2023-01-17T07:10:28.431Z,43.7
2023-01-17T07:11:29.472Z,43.6
2023-01-17T07:12:30.492Z,43.4
2023-01-17T07:13:31.562Z,43.5
2023-01-17T07:14:33.372Z,43.8
2023-01-17T07:15:34.542Z,43.4
2023-01-17T07:16:35.361Z,43.6
2023-01-17T07:17:36.534Z,43.4
2023-01-17T07:18:37.329Z,43.6
2023-01-17T07:19:38.322Z,43.5
2023-01-17T07:20:39.332Z,43.4
2023-01-17T07:21:40.359Z,43.1
2023-01-17T07:22:41.342Z,43.3
2023-01-17T07:23:42.255Z,43.4
2023-01-17T07:24:43.333Z,43.3
2023-01-17T07:25:44.452Z,43.3
2023-01-17T07:26:45.507Z,43.3
2023-01-17T07:27:46.493Z,43.2
2023-01-17T07:28:47.286Z,42.7
2023-01-17T07:29:48.903Z,42.9
2023-01-17T07:30:50.549Z,43.2
2023-01-17T07:31:51.578Z,43.3
2023-01-17T07:32:52.558Z,43.2
2023-01-17T07:33:53.511Z,42.9
2023-01-17T07:34:54.556Z,42.8
2023-01-17T07:35:55.472Z,42.7
2023-01-17T07:36:56.400Z,42.9
2023-01-17T07:37:57.362Z,43.2
2023-01-17T07:38:58.391Z,43.5
2023-01-17T07:39:59.473Z,43.6
2023-01-17T07:41:00.769Z,43.5
2023-01-17T07:42:02.302Z,43.1
2023-01-17T07:43:03.330Z,43.2
2023-01-17T07:44:04.421Z,43.3
2023-01-17T07:45:05.378Z,43.3
2023-01-17T07:46:06.552Z,43.4
2023-01-17T07:47:07.630Z,43.5
2023-01-17T07:48:08.475Z,43.5
2023-01-17T07:49:09.491Z,43.4
2023-01-17T07:50:10.590Z,43.5
2023-01-17T07:51:11.472Z,43.4
2023-01-17T07:52:12.504Z,43.3
2023-01-17T07:53:13.312Z,43.1
2023-01-17T07:54:14.553Z,43.3
2023-01-17T07:55:15.831Z,43.2
2023-01-17T07:56:18.159Z,43.3
2023-01-17T07:57:19.552Z,43.1
2023-01-17T07:58:20.551Z,43
2023-01-17T07:59:21.434Z,43
2023-01-17T08:00:22.513Z,42.5
2023-01-17T08:01:24.475Z,41.8
2023-01-17T08:02:25.503Z,42.4
2023-01-17T08:03:26.312Z,42.4
2023-01-17T08:04:27.401Z,42.5
2023-01-17T08:05:28.490Z,42.6
2023-01-17T08:06:29.486Z,42.4
2023-01-17T08:07:30.551Z,42.6
2023-01-17T08:08:31.530Z,42.4
2023-01-17T08:09:32.755Z,42.5
2023-01-17T08:10:33.552Z,41.6
2023-01-17T08:11:34.572Z,41.5
2023-01-17T08:12:35.492Z,41.8
2023-01-17T08:13:36.535Z,41.6
2023-01-17T08:14:37.394Z,41.9
2023-01-17T08:15:38.350Z,41.9
2023-01-17T08:16:39.515Z,41.8
2023-01-17T08:17:40.370Z,41.4
2023-01-17T08:18:41.463Z,40.9
2023-01-17T08:19:42.443Z,41
2023-01-17T08:20:43.391Z,41.3
2023-01-17T08:21:44.484Z,41.1
2023-01-17T08:22:45.584Z,41
2023-01-17T08:23:46.588Z,41.2
2023-01-17T08:24:47.437Z,41.4
2023-01-17T08:25:49.011Z,41.4
2023-01-17T08:26:50.653Z,41.2
2023-01-17T08:27:51.684Z,41.1
2023-01-17T08:28:52.391Z,41
2023-01-17T08:29:53.371Z,41
2023-01-17T08:30:54.394Z,41
2023-01-17T08:31:55.541Z,41
2023-01-17T08:32:56.440Z,40.9
2023-01-17T08:33:57.392Z,41
2023-01-17T08:34:58.432Z,41
2023-01-17T08:35:59.531Z,41
2023-01-17T08:37:00.401Z,40.9
2023-01-17T08:38:01.674Z,40.9
2023-01-17T08:39:02.432Z,40.8
2023-01-17T08:40:03.370Z,40.7
2023-01-17T08:41:04.354Z,40.8
2023-01-17T08:42:05.382Z,40.7
2023-01-17T08:43:06.431Z,40.6
2023-01-17T08:44:07.411Z,40.3
2023-01-17T08:45:08.403Z,40.6
2023-01-17T08:46:09.631Z,40.6
2023-01-17T08:47:10.533Z,40.7
2023-01-17T08:48:11.617Z,41.1
2023-01-17T08:49:12.576Z,41.4
2023-01-17T08:50:13.578Z,41.7
2023-01-17T08:51:14.591Z,41.9
2023-01-17T08:52:15.591Z,41.7
2023-01-17T08:53:16.540Z,42.3
2023-01-17T08:54:17.622Z,42.4
2023-01-17T08:55:18.530Z,42.5
2023-01-17T08:56:19.543Z,42.5
2023-01-17T08:57:20.594Z,42.6
2023-01-17T08:58:21.431Z,42.6
2023-01-17T08:59:22.514Z,42.7
2023-01-17T09:00:23.453Z,42.6
2023-01-17T09:01:24.594Z,42.4
2023-01-17T09:02:25.416Z,42.4
2023-01-17T09:03:26.430Z,42.3
2023-01-17T09:04:27.510Z,42.2
2023-01-17T09:05:28.421Z,42.3
2023-01-17T09:06:29.414Z,41.8
2023-01-17T09:07:30.569Z,41.7
2023-01-17T09:08:31.398Z,41.4
2023-01-17T09:09:32.412Z,41.2
2023-01-17T09:10:33.372Z,40.9
2023-01-17T09:11:34.411Z,40.7
2023-01-17T09:12:35.512Z,40.7
2023-01-17T09:13:36.956Z,40.8
2023-01-17T09:14:38.486Z,40.7
2023-01-17T09:15:39.552Z,40.8
2023-01-17T09:16:40.694Z,40.8
2023-01-17T09:17:41.779Z,40.6
2023-01-17T09:18:42.471Z,40.6
2023-01-17T09:19:43.414Z,40.6
2023-01-17T09:20:44.491Z,40.8
2023-01-17T09:21:45.631Z,40.2
2023-01-17T09:22:46.420Z,39.8
2023-01-17T09:23:47.402Z,39.9
2023-01-17T09:24:49.130Z,39.8
2023-01-17T09:25:50.635Z,39.5
2023-01-17T09:26:51.409Z,39.1
2023-01-17T09:27:52.452Z,39.3
2023-01-17T09:28:53.431Z,39.1
2023-01-17T09:29:54.514Z,39.1
2023-01-17T09:30:55.459Z,39.1
2023-01-17T09:31:56.635Z,39.1
2023-01-17T09:32:57.551Z,39
2023-01-17T09:33:58.413Z,39.3
2023-01-17T09:34:59.433Z,39.1
2023-01-17T09:36:00.578Z,38.9
2023-01-17T09:37:01.839Z,38.9
2023-01-17T09:38:02.425Z,39.1
2023-01-17T09:39:03.498Z,38.8
2023-01-17T09:40:04.531Z,38.1
2023-01-17T09:41:05.571Z,38.2
2023-01-17T09:42:06.628Z,38.5
2023-01-17T09:43:07.633Z,38.1
2023-01-17T09:44:08.459Z,37.9
2023-01-17T09:45:09.471Z,37
2023-01-17T09:46:10.533Z,37
2023-01-17T09:47:11.583Z,36.3
2023-01-17T09:48:12.433Z,35.2
2023-01-17T09:49:13.434Z,34.6
2023-01-17T09:50:14.390Z,34.5
2023-01-17T09:51:15.971Z,33.5
2023-01-17T09:52:17.680Z,33.1
2023-01-17T09:53:18.411Z,32.6
2023-01-17T09:54:19.579Z,32.7
2023-01-17T09:55:20.638Z,32.6
2023-01-17T09:56:21.616Z,32.8
2023-01-17T09:57:22.631Z,33.2
2023-01-17T09:58:23.717Z,33
2023-01-17T09:59:32.583Z,32.8
2023-01-17T10:00:25.566Z,32.9
2023-01-17T10:01:26.652Z,32.7
2023-01-17T10:02:27.671Z,33
2023-01-17T10:03:28.581Z,33
2023-01-17T10:04:29.442Z,33.5
2023-01-17T10:05:30.534Z,32.8
2023-01-17T10:06:31.605Z,32.6
2023-01-17T10:07:32.532Z,32.4
2023-01-17T10:08:33.445Z,32.3
2023-01-17T10:09:34.522Z,32
2023-01-17T10:10:35.479Z,31.8
2023-01-17T10:11:36.455Z,32.5
2023-01-17T10:12:37.432Z,33.7
2023-01-17T10:13:38.491Z,33.8
2023-01-17T10:14:39.373Z,34.2
2023-01-17T10:15:40.824Z,34.8
2023-01-17T10:16:41.601Z,34.3
2023-01-17T10:17:42.392Z,34.6
2023-01-17T10:18:43.394Z,35.1
2023-01-17T10:19:44.410Z,35
2023-01-17T10:20:45.720Z,34.6
2023-01-17T10:21:46.691Z,34.7
2023-01-17T10:22:47.553Z,35.1
2023-01-17T10:23:48.415Z,35.1
2023-01-17T10:24:49.459Z,35.1
2023-01-17T10:25:50.671Z,35.6
2023-01-17T10:26:51.751Z,35.4
2023-01-17T10:27:52.658Z,35.4
2023-01-17T10:28:53.812Z,35.6
2023-01-17T10:29:54.616Z,35.8
2023-01-17T10:30:55.512Z,35.6
2023-01-17T10:31:56.440Z,36
2023-01-17T10:32:57.522Z,36.4
2023-01-17T10:33:58.559Z,36.5
2023-01-17T10:34:59.473Z,36.4
2023-01-17T10:36:00.673Z,36.4
2023-01-17T10:37:01.696Z,36.3
2023-01-17T10:38:02.551Z,36.3
2023-01-17T10:39:03.492Z,35.7
2023-01-17T10:40:04.457Z,35.9
2023-01-17T10:41:05.434Z,35.6
2023-01-17T10:42:06.491Z,35.1
2023-01-17T10:43:07.453Z,34.1
2023-01-17T10:44:08.443Z,34
2023-01-17T10:45:09.506Z,33
2023-01-17T10:46:10.536Z,32.6
2023-01-17T10:47:11.425Z,32.4
2023-01-17T10:48:12.484Z,32.9
2023-01-17T10:49:13.480Z,32.4
2023-01-17T10:50:14.574Z,32
2023-01-17T10:51:15.421Z,31.3
2023-01-17T10:52:16.725Z,31.7
2023-01-17T10:53:17.731Z,32.6
2023-01-17T10:54:18.639Z,32.8
2023-01-17T10:55:19.619Z,33.1
2023-01-17T10:56:20.699Z,32.5
2023-01-17T10:57:21.769Z,31.4
2023-01-17T10:58:22.711Z,31.1
2023-01-17T10:59:23.621Z,31.1
2023-01-17T11:00:24.592Z,30.9
2023-01-17T11:01:25.711Z,30.4
2023-01-17T11:02:26.709Z,30.6
2023-01-17T11:03:27.456Z,30.7
2023-01-17T11:04:28.575Z,30.3
2023-01-17T11:05:29.446Z,30.2
2023-01-17T11:06:30.462Z,30.3
2023-01-17T11:07:31.570Z,30.4
2023-01-17T11:08:32.517Z,30.6
2023-01-17T11:09:33.514Z,30.5
2023-01-17T11:10:34.424Z,30.8
2023-01-17T11:11:35.453Z,30.9
2023-01-17T11:12:36.490Z,31
2023-01-17T11:13:37.495Z,31.2
2023-01-17T11:14:38.454Z,30.9
2023-01-17T11:15:39.564Z,30.2
2023-01-17T11:16:40.472Z,31.1
2023-01-17T11:17:41.513Z,30.6
2023-01-17T11:18:42.592Z,30.6
2023-01-17T11:19:43.652Z,30
2023-01-17T11:20:44.492Z,29.8
2023-01-17T11:21:45.830Z,29.9
2023-01-17T11:22:46.711Z,29.9
2023-01-17T11:23:47.479Z,29.2
2023-01-17T11:24:48.512Z,29.1
2023-01-17T11:25:49.461Z,28.7
2023-01-17T11:26:50.497Z,28.8
2023-01-17T11:27:51.470Z,28.9
2023-01-17T11:28:52.510Z,29
2023-01-17T11:29:53.503Z,29.2
2023-01-17T11:30:54.535Z,29.4
2023-01-17T11:31:55.496Z,29.2
2023-01-17T11:32:56.471Z,29.4
2023-01-17T11:33:57.553Z,29.5
2023-01-17T11:34:58.492Z,29.3
2023-01-17T11:35:59.512Z,29.3
2023-01-17T11:37:00.490Z,29.4
2023-01-17T11:38:01.476Z,29.4
2023-01-17T11:39:02.873Z,29.4
2023-01-17T11:40:03.531Z,29.4
2023-01-17T11:41:04.459Z,29.2
2023-01-17T11:42:05.477Z,28.6
2023-01-17T11:43:06.487Z,28.6
2023-01-17T11:44:07.538Z,28.5
2023-01-17T11:45:08.431Z,28.6
2023-01-17T11:46:09.732Z,28.6
2023-01-17T11:47:10.535Z,28.4
2023-01-17T11:48:11.491Z,28.1
2023-01-17T11:49:12.578Z,27.9
2023-01-17T11:50:13.475Z,28
2023-01-17T11:51:14.553Z,28.2
2023-01-17T11:52:15.524Z,28.4
2023-01-17T11:53:16.491Z,28.5
2023-01-17T11:54:17.504Z,28.5
2023-01-17T11:55:18.456Z,28.6
2023-01-17T11:56:19.536Z,28.7
2023-01-17T11:57:20.442Z,29
2023-01-17T11:58:21.559Z,29.4
2023-01-17T11:59:22.614Z,29.4
2023-01-17T12:00:23.539Z,29.6
2023-01-17T12:01:24.507Z,29.6
2023-01-17T12:02:25.471Z,29.3
2023-01-17T12:03:26.556Z,29.3
2023-01-17T12:04:27.572Z,29.1
2023-01-17T12:05:28.513Z,29.3
2023-01-17T12:06:29.451Z,29.1
2023-01-17T12:07:30.479Z,28.8
2023-01-17T12:08:31.505Z,28.6
2023-01-17T12:09:32.931Z,28.5
2023-01-17T12:10:34.714Z,28.4
2023-01-17T12:11:35.616Z,29
2023-01-17T12:12:36.690Z,28.5
2023-01-17T12:13:37.731Z,28.1
2023-01-17T12:14:38.591Z,28.3
2023-01-17T12:15:39.459Z,28.1
2023-01-17T12:16:40.474Z,28
2023-01-17T12:17:41.651Z,28.1
2023-01-17T12:18:42.697Z,28.2
2023-01-17T12:19:43.735Z,28.2
2023-01-17T12:20:44.615Z,28.3
2023-01-17T12:21:45.711Z,28
2023-01-17T12:22:46.403Z,28
2023-01-17T12:23:47.495Z,27.9
2023-01-17T12:24:48.551Z,28.1
2023-01-17T12:25:49.447Z,28.1
2023-01-17T12:26:50.737Z,28.2
2023-01-17T12:27:51.711Z,28.3
2023-01-17T12:28:52.699Z,28.2
2023-01-17T12:29:53.525Z,28.2
2023-01-17T12:30:54.582Z,28.3
2023-01-17T12:31:55.541Z,28.2
2023-01-17T12:32:56.538Z,28
2023-01-17T12:33:57.555Z,27.6
2023-01-17T12:34:58.433Z,27.6
2023-01-17T12:35:59.498Z,27.6
2023-01-17T12:37:00.491Z,27.8
2023-01-17T12:38:05.048Z,28.1
2023-01-17T12:39:02.691Z,28
2023-01-17T12:40:03.506Z,28.2
2023-01-17T12:41:04.491Z,28.5
2023-01-17T12:42:05.532Z,28.7
2023-01-17T12:43:06.530Z,29
2023-01-17T12:44:07.471Z,28.9
2023-01-17T12:45:08.576Z,28.4
2023-01-17T12:46:09.502Z,28.3
2023-01-17T12:47:10.493Z,28.1
2023-01-17T12:48:11.557Z,28
2023-01-17T12:49:12.539Z,28.1
2023-01-17T12:50:13.607Z,28
2023-01-17T12:51:14.573Z,28
2023-01-17T12:52:15.671Z,28.2
2023-01-17T12:53:16.538Z,28.2
2023-01-17T12:54:17.682Z,27.9
2023-01-17T12:55:18.685Z,27.6
2023-01-17T12:56:21.357Z,27.5
2023-01-17T12:57:23.297Z,27.4
2023-01-17T12:58:24.553Z,27.6
2023-01-17T12:59:25.537Z,27.5
2023-01-17T13:00:26.573Z,27.4
2023-01-17T13:01:27.651Z,27.9
2023-01-17T13:02:28.636Z,28
2023-01-17T13:03:32.145Z,28
2023-01-17T13:04:33.795Z,27.7
2023-01-17T13:05:34.510Z,27.4
2023-01-17T13:06:35.492Z,27.2
2023-01-17T13:07:36.556Z,27.2
2023-01-17T13:08:37.459Z,26.8
2023-01-17T13:09:38.562Z,26.8
2023-01-17T13:10:39.512Z,26.3
2023-01-17T13:11:40.470Z,26.2
2023-01-17T13:12:41.633Z,26.4
2023-01-17T13:13:42.719Z,26
2023-01-17T13:14:43.614Z,25.9
2023-01-17T13:15:44.571Z,26.2
2023-01-17T13:16:45.551Z,26.5
2023-01-17T13:17:46.773Z,26.8
2023-01-17T13:18:47.724Z,27
2023-01-17T13:19:48.650Z,27.5
2023-01-17T13:20:49.471Z,27.4
2023-01-17T13:21:50.609Z,27.5
2023-01-17T13:22:51.711Z,27.5
2023-01-17T13:23:52.717Z,27.8
2023-01-17T13:24:53.725Z,27.5
2023-01-17T13:25:54.612Z,27.6
2023-01-17T13:26:55.498Z,27.7
2023-01-17T13:27:56.634Z,27.8
2023-01-17T13:28:57.530Z,27.9
2023-01-17T13:29:58.601Z,27.9
2023-01-17T13:30:59.556Z,27.9
2023-01-17T13:32:00.571Z,28.1
2023-01-17T13:33:01.834Z,28
2023-01-17T13:34:02.594Z,28
2023-01-17T13:35:03.608Z,28.2
2023-01-17T13:36:04.750Z,28
2023-01-17T13:37:05.591Z,27.9
2023-01-17T13:38:06.565Z,27.6
2023-01-17T13:39:07.617Z,27.5
2023-01-17T13:40:08.605Z,27.7
2023-01-17T13:41:09.612Z,27.6